createdAt,value
2018-11-28T00:00:06.736Z,32.70
2018-11-28T00:02:35.573Z,33.60
2018-11-28T00:05:04.412Z,36.07
2018-11-28T00:07:33.238Z,34.63
2018-11-28T00:10:02.064Z,34.13
2018-11-28T00:12:30.904Z,34.53
2018-11-28T00:14:59.736Z,33.33
2018-11-28T00:17:28.581Z,33.47
2018-11-28T00:19:57.516Z,35.63
2018-11-28T00:22:26.355Z,35.33
2018-11-28T00:24:55.782Z,36.10
2018-11-28T00:27:25.354Z,35.70
2018-11-28T00:29:54.191Z,34.80
2018-11-28T00:32:23.087Z,36.20
2018-11-28T00:34:51.887Z,32.97
2018-11-28T00:37:20.727Z,34.00
2018-11-28T00:39:49.576Z,33.10
2018-11-28T00:42:18.409Z,32.57
2018-11-28T00:44:47.978Z,32.53
2018-11-28T00:47:16.817Z,36.17
2018-11-28T00:49:46.399Z,31.77
2018-11-28T00:52:15.254Z,32.83
2018-11-28T00:54:44.105Z,36.23
2018-11-28T00:57:13.666Z,34.80
2018-11-28T00:59:42.498Z,32.43
2018-11-28T01:02:12.077Z,33.53
2018-11-28T01:04:40.919Z,26.40
2018-11-28T01:07:09.767Z,32.80
2018-11-28T01:09:39.348Z,37.40
2018-11-28T01:12:08.189Z,34.28
2018-11-28T01:14:37.774Z,35.73
2018-11-28T01:17:06.623Z,37.28
2018-11-28T01:19:35.453Z,37.40
2018-11-28T01:22:04.285Z,36.87
2018-11-28T01:24:33.118Z,35.47
2018-11-28T01:27:01.961Z,33.57
2018-11-28T01:29:30.807Z,34.90
2018-11-28T01:31:59.634Z,34.40
2018-11-28T01:34:28.469Z,32.93
2018-11-28T01:36:57.306Z,33.20
2018-11-28T01:39:26.134Z,36.07
2018-11-28T01:41:55.707Z,36.83
2018-11-28T01:44:26.094Z,37.10
2018-11-28T01:46:57.865Z,38.73
2018-11-28T01:49:26.709Z,36.97
2018-11-28T01:51:55.555Z,38.80
2018-11-28T01:54:24.406Z,37.33
2018-11-28T01:56:53.232Z,36.40
2018-11-28T01:59:22.079Z,36.40
2018-11-28T02:01:50.909Z,35.50
2018-11-28T02:04:20.514Z,36.50
2018-11-28T02:06:50.094Z,34.53
2018-11-28T02:09:18.929Z,36.47
2018-11-28T02:11:47.774Z,34.00
2018-11-28T02:14:16.616Z,35.83
2018-11-28T02:16:45.458Z,39.53
2018-11-28T02:19:14.319Z,37.30
2018-11-28T02:21:43.173Z,38.05
2018-11-28T02:24:12.011Z,37.27
2018-11-28T02:26:40.863Z,37.73
2018-11-28T02:29:09.706Z,35.53
2018-11-28T02:31:38.576Z,37.00
2018-11-28T02:34:07.412Z,34.60
2018-11-28T02:36:36.259Z,34.93
2018-11-28T02:39:05.116Z,36.73
2018-11-28T02:41:33.960Z,35.13
2018-11-28T02:44:02.828Z,35.83
2018-11-28T02:46:31.672Z,36.63
2018-11-28T02:49:00.558Z,35.90
2018-11-28T02:51:29.384Z,35.50
2018-11-28T02:53:58.242Z,37.23
2018-11-28T02:56:27.077Z,34.87
2018-11-28T02:58:55.929Z,34.40
2018-11-28T03:01:24.815Z,33.50
2018-11-28T03:03:53.649Z,35.27
2018-11-28T03:06:22.485Z,37.85
2018-11-28T03:08:51.338Z,36.90
2018-11-28T03:11:20.201Z,36.00
2018-11-28T03:13:49.050Z,37.47
2018-11-28T03:16:17.889Z,38.77
2018-11-28T03:18:46.731Z,36.80
2018-11-28T03:21:15.586Z,33.00
2018-11-28T03:23:44.435Z,37.57
2018-11-28T03:26:13.274Z,37.57
2018-11-28T03:28:42.126Z,38.33
2018-11-28T03:31:10.976Z,38.97
2018-11-28T03:33:40.554Z,38.70
2018-11-28T03:36:09.411Z,36.87
2018-11-28T03:38:38.289Z,36.15
2018-11-28T03:41:07.155Z,34.40
2018-11-28T03:43:35.997Z,37.70
2018-11-28T03:46:04.851Z,33.73
2018-11-28T03:48:34.333Z,32.93
2018-11-28T03:51:03.123Z,35.70
2018-11-28T03:53:31.984Z,37.70
2018-11-28T03:56:00.858Z,37.20
2018-11-28T03:58:29.697Z,38.45
2018-11-28T04:00:58.535Z,38.40
2018-11-28T04:03:27.378Z,38.47
2018-11-28T04:05:56.229Z,37.53
2018-11-28T04:08:25.088Z,37.97
2018-11-28T04:10:53.971Z,39.27
2018-11-28T04:13:22.809Z,38.30
2018-11-28T04:15:51.650Z,38.30
2018-11-28T04:18:20.494Z,39.60
2018-11-28T04:20:49.344Z,40.63
2018-11-28T04:23:18.193Z,42.47
2018-11-28T04:25:47.046Z,40.60
2018-11-28T04:28:15.922Z,40.57
2018-11-28T04:30:44.761Z,43.15
2018-11-28T04:33:13.622Z,42.67
2018-11-28T04:35:42.456Z,41.00
2018-11-28T04:38:11.293Z,43.03
2018-11-28T04:40:40.148Z,44.33
2018-11-28T04:43:08.987Z,43.67
2018-11-28T04:45:37.825Z,39.77
2018-11-28T04:48:06.660Z,41.50
2018-11-28T04:50:35.500Z,46.50
2018-11-28T04:53:04.332Z,43.97
2018-11-28T04:55:33.164Z,40.80
2018-11-28T04:58:02.003Z,38.97
2018-11-28T05:00:30.841Z,40.67
2018-11-28T05:02:59.682Z,43.27
2018-11-28T05:05:28.523Z,39.60
2018-11-28T05:07:57.364Z,40.22
2018-11-28T05:10:26.943Z,41.87
2018-11-28T05:12:55.774Z,38.50
2018-11-28T05:15:24.614Z,39.70
2018-11-28T05:17:53.582Z,36.80
2018-11-28T05:20:22.304Z,44.20
2018-11-28T05:22:51.155Z,41.03
2018-11-28T05:25:19.994Z,41.95
2018-11-28T05:27:49.580Z,41.40
2018-11-28T05:30:18.414Z,47.00
2018-11-28T05:32:47.264Z,45.27
2018-11-28T05:35:16.154Z,43.17
2018-11-28T05:37:44.988Z,39.73
2018-11-28T05:40:13.839Z,40.20
2018-11-28T05:42:42.669Z,38.97
2018-11-28T05:45:11.505Z,38.83
2018-11-28T05:47:40.363Z,44.20
2018-11-28T05:50:09.186Z,42.00
2018-11-28T05:52:38.043Z,38.93
2018-11-28T05:55:06.870Z,41.20
2018-11-28T05:57:35.714Z,39.87
2018-11-28T06:00:04.974Z,35.07
2018-11-28T06:02:34.145Z,39.13
2018-11-28T06:05:02.989Z,38.67
2018-11-28T06:07:31.831Z,36.33
2018-11-28T06:10:01.415Z,37.73
2018-11-28T06:12:30.260Z,40.63
2018-11-28T06:14:59.094Z,38.20
2018-11-28T06:17:27.933Z,40.33
2018-11-28T06:19:56.783Z,40.50
2018-11-28T06:22:25.615Z,41.43
2018-11-28T06:24:54.457Z,36.20
2018-11-28T06:27:23.288Z,36.00
2018-11-28T06:29:52.125Z,38.13
2018-11-28T06:32:20.965Z,35.73
2018-11-28T06:34:49.804Z,39.87
2018-11-28T06:37:18.651Z,33.60
2018-11-28T06:39:47.484Z,37.13
2018-11-28T06:42:16.318Z,40.70
2018-11-28T06:44:45.150Z,42.70
2018-11-28T06:47:13.980Z,40.97
2018-11-28T06:49:43.564Z,42.07
2018-11-28T06:52:12.397Z,34.00
2018-11-28T06:54:41.242Z,43.97
2018-11-28T06:57:10.097Z,42.70
2018-11-28T06:59:38.933Z,37.23
2018-11-28T07:02:07.766Z,38.60
2018-11-28T07:04:36.598Z,40.27
2018-11-28T07:07:05.441Z,41.10
2018-11-28T07:09:34.283Z,37.80
2018-11-28T07:12:03.120Z,38.50
2018-11-28T07:14:31.958Z,39.27
2018-11-28T07:17:01.522Z,37.90
2018-11-28T07:19:30.358Z,37.67
2018-11-28T07:21:59.194Z,37.37
2018-11-28T07:24:28.059Z,37.13
2018-11-28T07:26:56.895Z,35.63
2018-11-28T07:29:25.729Z,40.67
2018-11-28T07:31:54.567Z,36.20
2018-11-28T07:34:23.392Z,39.97
2018-11-28T07:36:52.220Z,41.23
2018-11-28T07:39:21.056Z,38.13
2018-11-28T07:41:50.631Z,40.33
2018-11-28T07:44:19.479Z,40.40
2018-11-28T07:46:48.449Z,37.17
2018-11-28T07:49:17.291Z,35.33
2018-11-28T07:51:46.125Z,34.20
2018-11-28T07:54:14.984Z,38.50
2018-11-28T07:56:43.824Z,37.13
2018-11-28T07:59:12.665Z,45.77
2018-11-28T08:01:41.489Z,38.10
2018-11-28T08:04:10.334Z,36.27
2018-11-28T08:06:39.160Z,40.73
2018-11-28T08:09:08.736Z,40.53
2018-11-28T08:11:38.180Z,38.30
2018-11-28T08:14:07.127Z,37.23
2018-11-28T08:16:35.965Z,36.40
2018-11-28T08:19:04.800Z,38.40
2018-11-28T08:21:33.627Z,35.07
2018-11-28T08:24:02.453Z,35.27
2018-11-28T08:26:31.296Z,35.23
2018-11-28T08:29:00.141Z,32.33
2018-11-28T08:31:28.973Z,36.03
2018-11-28T08:33:58.556Z,33.67
2018-11-28T08:36:27.389Z,35.25
2018-11-28T08:38:56.208Z,36.53
2018-11-28T08:41:25.041Z,37.27
2018-11-28T08:43:53.869Z,34.27
2018-11-28T08:46:22.755Z,32.83
2018-11-28T08:48:51.543Z,31.83
2018-11-28T08:51:20.387Z,31.53
2018-11-28T08:53:49.239Z,34.63
2018-11-28T08:56:18.070Z,35.55
2018-11-28T08:58:46.912Z,33.70
2018-11-28T09:01:15.748Z,33.08
2018-11-28T09:03:45.323Z,31.30
2018-11-28T09:06:14.136Z,32.30
2018-11-28T09:08:42.976Z,31.77
2018-11-28T09:11:11.814Z,33.17
2018-11-28T09:13:40.639Z,35.23
2018-11-28T09:16:09.475Z,30.63
2018-11-28T09:18:38.303Z,29.93
2018-11-28T09:21:07.880Z,29.43
2018-11-28T09:23:36.721Z,30.87
2018-11-28T09:26:05.556Z,28.30
2018-11-28T09:28:34.391Z,29.20
2018-11-28T09:31:03.231Z,29.20
2018-11-28T09:33:32.062Z,28.93
2018-11-28T09:36:00.906Z,29.67
2018-11-28T09:38:29.732Z,29.77
2018-11-28T09:40:59.313Z,29.30
2018-11-28T09:43:29.162Z,28.47
2018-11-28T09:45:56.985Z,30.88
2018-11-28T09:48:25.820Z,30.43
2018-11-28T09:50:54.649Z,28.60
2018-11-28T09:53:23.478Z,29.00
2018-11-28T09:55:53.054Z,29.17
2018-11-28T09:58:21.897Z,29.77
2018-11-28T10:00:50.731Z,27.93
2018-11-28T10:03:19.565Z,28.33
2018-11-28T10:05:48.399Z,26.80
2018-11-28T10:08:17.232Z,27.73
2018-11-28T10:10:46.805Z,31.50
2018-11-28T10:13:15.640Z,28.63
2018-11-28T10:15:44.485Z,26.73
2018-11-28T10:18:13.337Z,27.47
2018-11-28T10:20:42.169Z,27.97
2018-11-28T10:23:11.018Z,27.63
2018-11-28T10:25:39.860Z,28.60
2018-11-28T10:28:08.705Z,27.60
2018-11-28T10:30:37.556Z,29.02
2018-11-28T10:33:07.131Z,27.07
2018-11-28T10:35:35.963Z,27.60
2018-11-28T10:38:04.812Z,26.40
2018-11-28T10:40:33.639Z,24.23
2018-11-28T10:43:02.486Z,26.57
2018-11-28T10:45:31.381Z,26.23
2018-11-28T10:48:00.217Z,26.10
2018-11-28T10:50:29.062Z,26.47
2018-11-28T10:52:57.897Z,26.87
2018-11-28T10:55:26.738Z,25.43
2018-11-28T10:57:56.337Z,25.27
2018-11-28T11:00:25.164Z,28.62
2018-11-28T11:02:54.007Z,28.53
2018-11-28T11:05:22.844Z,27.07
2018-11-28T11:07:57.637Z,25.73
2018-11-28T11:10:27.375Z,26.47
2018-11-28T11:12:56.962Z,27.97
2018-11-28T11:15:25.797Z,25.13
2018-11-28T11:17:54.625Z,25.63
2018-11-28T11:20:23.477Z,25.63
2018-11-28T11:22:52.335Z,26.30
2018-11-28T11:25:21.898Z,25.33
2018-11-28T11:27:50.733Z,26.95
2018-11-28T11:30:19.578Z,26.73
2018-11-28T11:32:48.433Z,25.87
2018-11-28T11:35:17.255Z,27.93
2018-11-28T11:37:46.098Z,26.63
2018-11-28T11:40:14.946Z,25.83
2018-11-28T11:42:43.782Z,28.93
2018-11-28T11:45:12.628Z,26.80
2018-11-28T11:47:41.478Z,27.20
2018-11-28T11:50:10.346Z,27.37
2018-11-28T11:52:39.924Z,26.40
2018-11-28T11:55:08.773Z,27.33
2018-11-28T11:57:37.603Z,27.37
2018-11-28T12:00:06.450Z,25.47
2018-11-28T12:02:35.294Z,25.35
2018-11-28T12:05:04.880Z,25.37
2018-11-28T12:07:34.471Z,24.17
2018-11-28T12:10:08.798Z,25.60
2018-11-28T12:12:32.155Z,25.77
2018-11-28T12:15:01.728Z,24.13
2018-11-28T12:17:30.565Z,24.67
2018-11-28T12:19:59.414Z,23.37
2018-11-28T12:22:28.246Z,24.07
2018-11-28T12:24:57.104Z,24.40
2018-11-28T12:27:25.942Z,25.95
2018-11-28T12:29:54.777Z,23.07
2018-11-28T12:32:23.627Z,23.67
2018-11-28T12:34:52.470Z,19.67
2018-11-28T12:37:21.319Z,23.73
2018-11-28T12:39:50.157Z,23.80
2018-11-28T12:42:19.007Z,24.43
2018-11-28T12:44:47.851Z,24.13
2018-11-28T12:47:16.721Z,24.93
2018-11-28T12:49:45.570Z,25.00
2018-11-28T12:52:14.419Z,24.12
2018-11-28T12:54:44.004Z,24.83
2018-11-28T12:57:12.845Z,25.23
2018-11-28T12:59:41.680Z,23.40
2018-11-28T13:02:10.510Z,20.70
2018-11-28T13:04:39.362Z,21.57
2018-11-28T13:07:08.225Z,22.43
2018-11-28T13:09:37.058Z,25.08
2018-11-28T13:12:06.636Z,22.03
2018-11-28T13:14:35.474Z,23.77
2018-11-28T13:17:04.323Z,23.13
2018-11-28T13:19:33.228Z,21.40
2018-11-28T13:22:02.055Z,24.48
2018-11-28T13:24:30.907Z,23.83
2018-11-28T13:26:59.764Z,22.40
2018-11-28T13:29:28.627Z,23.07
2018-11-28T13:31:57.474Z,24.27
2018-11-28T13:34:26.337Z,22.50
2018-11-28T13:36:55.154Z,23.20
2018-11-28T13:39:24.750Z,21.50
2018-11-28T13:41:53.585Z,20.80
2018-11-28T13:44:22.438Z,21.77
2018-11-28T13:46:52.023Z,21.20
2018-11-28T13:49:20.857Z,23.10
2018-11-28T13:51:49.727Z,21.77
2018-11-28T13:54:21.433Z,24.60
2018-11-28T13:57:04.562Z,22.20
2018-11-28T13:59:16.214Z,22.13
2018-11-28T14:01:45.050Z,22.93
2018-11-28T14:04:13.890Z,22.77
2018-11-28T14:06:42.727Z,22.70
2018-11-28T14:09:11.603Z,22.90
2018-11-28T14:11:40.405Z,23.60
2018-11-28T14:14:09.259Z,23.47
2018-11-28T14:16:38.096Z,24.37
2018-11-28T14:19:06.934Z,23.60
2018-11-28T14:21:35.780Z,23.77
2018-11-28T14:24:04.610Z,24.10
2018-11-28T14:26:33.452Z,26.33
2018-11-28T14:29:02.290Z,26.10
2018-11-28T14:31:31.116Z,24.13
2018-11-28T14:33:59.963Z,24.73
2018-11-28T14:36:28.821Z,28.83
2018-11-28T14:38:58.414Z,27.57
2018-11-28T14:41:27.247Z,28.50
2018-11-28T14:43:56.114Z,27.57
2018-11-28T14:46:25.708Z,26.03
2018-11-28T14:48:55.185Z,27.55
2018-11-28T14:51:23.399Z,22.10
2018-11-28T14:53:52.971Z,24.00
2018-11-28T14:56:21.834Z,23.37
2018-11-28T14:58:50.672Z,24.45
2018-11-28T15:01:19.518Z,24.57
2018-11-28T15:03:48.350Z,21.87
2018-11-28T15:06:17.201Z,22.60
2018-11-28T15:08:46.042Z,22.40
2018-11-28T15:11:15.614Z,21.37
2018-11-28T15:13:44.453Z,24.00
2018-11-28T15:16:13.309Z,21.90
2018-11-28T15:18:42.171Z,22.27
2018-11-28T15:21:10.981Z,21.73
2018-11-28T15:23:39.822Z,23.17
2018-11-28T15:26:08.664Z,22.57
2018-11-28T15:28:37.533Z,20.70
2018-11-28T15:31:06.346Z,21.03
2018-11-28T15:33:35.179Z,21.00
2018-11-28T15:36:04.014Z,22.20
2018-11-28T15:38:32.866Z,21.10
2018-11-28T15:41:01.698Z,21.33
2018-11-28T15:43:30.549Z,21.53
2018-11-28T15:45:59.423Z,22.03
2018-11-28T15:48:28.979Z,21.57
2018-11-28T15:50:57.825Z,21.43
2018-11-28T15:53:26.663Z,21.23
2018-11-28T15:55:55.502Z,21.73
2018-11-28T15:58:24.345Z,21.13
2018-11-28T16:00:53.197Z,21.40
2018-11-28T16:03:22.038Z,23.23
2018-11-28T16:05:50.896Z,21.33
2018-11-28T16:08:19.738Z,20.67
2018-11-28T16:10:48.588Z,28.60
2018-11-28T16:13:17.450Z,50.37
2018-11-28T16:15:46.282Z,52.75
2018-11-28T16:18:15.117Z,28.87
2018-11-28T16:20:43.959Z,21.77
2018-11-28T16:23:13.541Z,22.53
2018-11-28T16:25:42.378Z,20.47
2018-11-28T16:28:12.472Z,21.53
2018-11-28T16:30:40.078Z,20.40
2018-11-28T16:33:08.923Z,22.60
2018-11-28T16:35:38.510Z,22.70
2018-11-28T16:38:07.352Z,22.13
2018-11-28T16:40:36.199Z,22.50
2018-11-28T16:43:05.872Z,24.43
2018-11-28T16:45:34.677Z,22.27
2018-11-28T16:48:03.534Z,21.67
2018-11-28T16:50:32.376Z,22.00
2018-11-28T16:53:02.005Z,22.63
2018-11-28T16:55:30.802Z,23.15
2018-11-28T16:57:59.653Z,23.33
2018-11-28T17:00:28.498Z,22.47
2018-11-28T17:02:57.364Z,23.95
2018-11-28T17:05:26.257Z,28.83
2018-11-28T17:07:55.107Z,23.67
2018-11-28T17:10:23.941Z,21.70
2018-11-28T17:12:52.814Z,20.50
2018-11-28T17:15:21.664Z,20.63
2018-11-28T17:17:50.507Z,20.87
2018-11-28T17:20:19.434Z,20.47
2018-11-28T17:22:48.266Z,20.57
2018-11-28T17:25:17.931Z,22.50
2018-11-28T17:27:46.773Z,23.20
2018-11-28T17:30:18.829Z,20.80
2018-11-28T17:32:44.463Z,20.83
2018-11-28T17:35:13.315Z,20.77
2018-11-28T17:37:42.145Z,20.00
2018-11-28T17:40:10.971Z,18.80
2018-11-28T17:42:39.824Z,19.20
2018-11-28T17:45:08.694Z,18.57
2018-11-28T17:47:37.550Z,19.27
2018-11-28T17:50:06.397Z,19.17
2018-11-28T17:52:35.246Z,19.20
2018-11-28T17:55:04.110Z,18.40
2018-11-28T17:57:33.596Z,19.65
2018-11-28T18:00:02.443Z,18.03
2018-11-28T18:02:31.283Z,17.90
2018-11-28T18:05:00.113Z,19.07
2018-11-28T18:07:28.960Z,20.17
2018-11-28T18:09:57.797Z,19.90
2018-11-28T18:12:26.631Z,18.33
2018-11-28T18:14:55.489Z,18.93
2018-11-28T18:17:24.331Z,20.00
2018-11-28T18:19:53.176Z,20.87
2018-11-28T18:22:22.006Z,20.10
2018-11-28T18:24:50.859Z,17.80
2018-11-28T18:27:19.702Z,21.80
2018-11-28T18:29:49.297Z,20.37
2018-11-28T18:32:18.139Z,19.63
2018-11-28T18:34:47.031Z,21.27
2018-11-28T18:37:15.837Z,18.47
2018-11-28T18:39:44.692Z,21.15
2018-11-28T18:42:13.575Z,18.80
2018-11-28T18:44:42.431Z,17.93
2018-11-28T18:47:11.328Z,17.33
2018-11-28T18:49:40.101Z,18.53
2018-11-28T18:52:08.962Z,17.33
2018-11-28T18:54:37.813Z,19.73
2018-11-28T18:57:07.433Z,16.70
2018-11-28T18:59:36.257Z,18.80
2018-11-28T19:02:05.088Z,18.00
2018-11-28T19:04:33.935Z,16.93
2018-11-28T19:07:02.775Z,17.80
2018-11-28T19:09:32.214Z,16.53
2018-11-28T19:12:01.067Z,16.63
2018-11-28T19:14:29.923Z,17.30
2018-11-28T19:16:58.768Z,17.20
2018-11-28T19:19:27.610Z,17.37
2018-11-28T19:21:56.461Z,18.20
2018-11-28T19:24:25.310Z,16.87
2018-11-28T19:26:54.154Z,17.33
2018-11-28T19:29:23.013Z,17.13
2018-11-28T19:31:51.866Z,17.00
2018-11-28T19:34:20.711Z,17.77
2018-11-28T19:36:50.156Z,17.33
2018-11-28T19:39:19.025Z,18.20
2018-11-28T19:41:48.644Z,17.07
2018-11-28T19:44:17.486Z,18.37
2018-11-28T19:46:46.321Z,17.93
2018-11-28T19:49:15.183Z,17.73
2018-11-28T19:51:44.035Z,17.57
2018-11-28T19:54:12.899Z,18.30
2018-11-28T19:56:41.769Z,18.80
2018-11-28T19:59:11.347Z,19.70
2018-11-28T20:01:40.797Z,18.43
2018-11-28T20:04:09.653Z,17.67
2018-11-28T20:06:38.504Z,17.80
2018-11-28T20:09:07.366Z,16.97
2018-11-28T20:11:36.205Z,17.90
2018-11-28T20:14:05.255Z,17.53
2018-11-28T20:16:33.991Z,19.37
2018-11-28T20:19:02.906Z,19.27
2018-11-28T20:21:31.730Z,21.50
2018-11-28T20:24:00.639Z,19.30
2018-11-28T20:26:29.449Z,19.20
2018-11-28T20:28:58.305Z,18.90
2018-11-28T20:31:27.483Z,19.20
2018-11-28T20:33:57.109Z,18.77
2018-11-28T20:36:25.895Z,18.87
2018-11-28T20:38:54.779Z,18.97
2018-11-28T20:41:23.694Z,18.70
2018-11-28T20:43:52.582Z,18.87
2018-11-28T20:46:21.323Z,18.77
2018-11-28T20:48:50.225Z,18.57
2018-11-28T20:51:19.050Z,20.00
2018-11-28T20:53:47.943Z,21.50
2018-11-28T20:56:16.791Z,23.20
2018-11-28T20:58:45.654Z,20.90
2018-11-28T21:01:14.544Z,20.07
2018-11-28T21:03:44.188Z,22.17
2018-11-28T21:06:13.112Z,22.05
2018-11-28T21:08:41.978Z,19.70
2018-11-28T21:11:10.837Z,20.13
2018-11-28T21:13:39.671Z,20.23
2018-11-28T21:16:08.523Z,19.23
2018-11-28T21:18:38.110Z,18.80
2018-11-28T21:21:07.716Z,19.60
2018-11-28T21:23:36.576Z,21.37
2018-11-28T21:26:05.448Z,20.33
2018-11-28T21:28:34.275Z,19.97
2018-11-28T21:31:03.137Z,21.73
2018-11-28T21:33:32.052Z,22.00
2018-11-28T21:36:00.839Z,20.97
2018-11-28T21:38:29.715Z,21.73
2018-11-28T21:40:58.543Z,20.87
2018-11-28T21:43:27.451Z,20.37
2018-11-28T21:45:56.273Z,21.97
2018-11-28T21:48:25.127Z,21.67
2018-11-28T21:50:54.034Z,20.87
2018-11-28T21:53:22.952Z,22.60
2018-11-28T21:55:51.884Z,22.40
2018-11-28T21:58:20.739Z,20.87
2018-11-28T22:00:49.535Z,22.47
2018-11-28T22:03:18.484Z,21.53
2018-11-28T22:05:47.313Z,23.70
2018-11-28T22:08:16.161Z,21.00
2018-11-28T22:10:45.000Z,21.87
2018-11-28T22:13:14.582Z,21.53
2018-11-28T22:15:43.423Z,24.33
2018-11-28T22:18:12.304Z,21.93
2018-11-28T22:20:41.148Z,22.63
2018-11-28T22:23:09.984Z,21.13
2018-11-28T22:25:38.849Z,22.00
2018-11-28T22:28:07.712Z,22.20
2018-11-28T22:30:36.564Z,23.00
2018-11-28T22:33:05.401Z,22.87
2018-11-28T22:35:34.252Z,21.33
2018-11-28T22:38:03.079Z,23.25
2018-11-28T22:40:32.501Z,21.40
2018-11-28T22:43:02.092Z,21.00
2018-11-28T22:45:30.946Z,23.02
2018-11-28T22:47:59.781Z,21.40
2018-11-28T22:50:28.607Z,21.90
2018-11-28T22:52:57.459Z,20.70
2018-11-28T22:55:26.290Z,21.10
2018-11-28T22:57:55.139Z,19.97
2018-11-28T23:00:23.982Z,21.00
2018-11-28T23:02:52.827Z,21.63
2018-11-28T23:05:22.411Z,21.27
2018-11-28T23:07:51.290Z,23.67
2018-11-28T23:10:20.230Z,23.47
2018-11-28T23:12:49.038Z,24.27
2018-11-28T23:15:17.904Z,22.57
2018-11-28T23:17:46.750Z,20.90
2018-11-28T23:20:15.586Z,21.40
2018-11-28T23:22:44.419Z,23.17
2018-11-28T23:25:13.267Z,22.40
2018-11-28T23:27:42.108Z,24.27
2018-11-28T23:30:10.936Z,23.17
2018-11-28T23:32:39.770Z,25.20
2018-11-28T23:35:08.629Z,22.83
2018-11-28T23:37:37.473Z,22.50
2018-11-28T23:40:06.311Z,22.07
2018-11-28T23:42:35.146Z,21.90
2018-11-28T23:45:03.986Z,21.73
2018-11-28T23:47:32.837Z,21.80
2018-11-28T23:50:01.688Z,22.10
2018-11-28T23:52:30.517Z,22.27
2018-11-28T23:54:59.360Z,21.97
2018-11-28T23:57:28.205Z,21.83
2018-11-28T23:59:57.052Z,21.00
